createdAt,value
2019-05-25T00:01:46.176Z,84.67
2019-05-25T00:04:18.826Z,84.57
2019-05-25T00:06:51.374Z,84.50
2019-05-25T00:09:23.905Z,84.50
2019-05-25T00:11:57.082Z,84.58
2019-05-25T00:14:29.756Z,84.55
2019-05-25T00:17:03.203Z,84.44
2019-05-25T00:19:35.884Z,84.48
2019-05-25T00:22:08.415Z,84.52
2019-05-25T00:24:40.936Z,84.28
2019-05-25T00:27:13.415Z,84.27
2019-05-25T00:29:45.756Z,84.30
2019-05-25T00:32:18.410Z,84.15
2019-05-25T00:34:51.125Z,84.24
2019-05-25T00:37:23.656Z,84.26
2019-05-25T00:39:56.117Z,84.44
2019-05-25T00:42:28.434Z,84.78
2019-05-25T00:45:00.995Z,84.79
2019-05-25T00:47:33.565Z,84.97
2019-05-25T00:50:06.445Z,85.09
2019-05-25T00:52:39.215Z,85.09
2019-05-25T00:55:12.048Z,84.89
2019-05-25T00:57:44.443Z,84.98
2019-05-25T01:00:17.010Z,84.77
2019-05-25T01:02:49.524Z,84.69
2019-05-25T01:05:22.110Z,84.45
2019-05-25T01:07:54.626Z,84.35
2019-05-25T01:10:28.535Z,84.70
2019-05-25T01:13:01.457Z,84.47
2019-05-25T01:15:34.056Z,84.30
2019-05-25T01:18:06.665Z,84.49
2019-05-25T01:20:40.096Z,84.46
2019-05-25T01:23:12.870Z,84.45
2019-05-25T01:25:45.377Z,84.13
2019-05-25T01:28:17.849Z,84.08
2019-05-25T01:30:50.571Z,84.09
2019-05-25T01:33:23.225Z,84.02
2019-05-25T01:35:55.635Z,84.11
2019-05-25T01:38:28.075Z,84.11
2019-05-25T01:41:00.595Z,84.09
2019-05-25T01:43:33.343Z,84.35
2019-05-25T01:46:05.886Z,84.36
2019-05-25T01:48:38.447Z,84.59
2019-05-25T01:51:10.967Z,84.54
2019-05-25T01:53:43.605Z,84.65
2019-05-25T01:56:16.070Z,84.79
2019-05-25T01:58:48.675Z,84.89
2019-05-25T02:01:21.370Z,84.96
2019-05-25T02:03:53.660Z,84.91
2019-05-25T02:06:26.525Z,85.07
2019-05-25T02:08:59.173Z,85.07
2019-05-25T02:11:31.615Z,85.09
2019-05-25T02:14:04.296Z,85.11
2019-05-25T02:16:36.795Z,85.16
2019-05-25T02:19:09.497Z,84.86
2019-05-25T02:21:42.076Z,84.62
2019-05-25T02:24:14.765Z,84.63
2019-05-25T02:26:47.266Z,84.49
2019-05-25T02:29:19.876Z,84.43
2019-05-25T02:31:52.607Z,84.49
2019-05-25T02:34:25.355Z,84.68
2019-05-25T02:36:57.865Z,84.87
2019-05-25T02:39:30.465Z,84.81
2019-05-25T02:42:03.038Z,84.87
2019-05-25T02:44:35.677Z,84.95
2019-05-25T02:47:08.346Z,85.12
2019-05-25T02:49:42.523Z,85.05
2019-05-25T02:52:15.215Z,84.94
2019-05-25T02:54:47.988Z,85.02
2019-05-25T02:57:20.637Z,85.18
2019-05-25T02:59:53.605Z,85.41
2019-05-25T03:02:28.354Z,85.51
2019-05-25T03:05:00.787Z,85.70
2019-05-25T03:07:33.728Z,85.92
2019-05-25T03:10:07.337Z,86.03
2019-05-25T03:12:40.909Z,86.12
2019-05-25T03:15:14.228Z,86.07
2019-05-25T03:17:46.946Z,86.14
2019-05-25T03:20:19.686Z,86.29
2019-05-25T03:22:52.359Z,86.41
2019-05-25T03:25:25.155Z,86.50
2019-05-25T03:27:58.565Z,86.64
2019-05-25T03:30:35.767Z,86.52
2019-05-25T03:33:08.515Z,86.45
2019-05-25T03:35:41.476Z,86.40
2019-05-25T03:38:14.147Z,86.30
2019-05-25T03:40:46.846Z,86.13
2019-05-25T03:43:19.436Z,85.95
2019-05-25T03:45:52.766Z,85.84
2019-05-25T03:48:25.425Z,85.58
2019-05-25T03:50:59.397Z,85.34
2019-05-25T03:53:33.283Z,85.01
2019-05-25T03:56:06.586Z,84.76
2019-05-25T03:58:39.466Z,84.44
2019-05-25T04:01:12.565Z,84.14
2019-05-25T04:03:45.413Z,83.93
2019-05-25T04:06:17.935Z,83.60
2019-05-25T04:08:50.868Z,83.49
2019-05-25T04:11:23.405Z,83.26
2019-05-25T04:13:56.814Z,82.91
2019-05-25T04:16:29.646Z,82.49
2019-05-25T04:19:04.006Z,82.33
2019-05-25T04:21:36.719Z,82.58
2019-05-25T04:24:12.497Z,82.57
2019-05-25T04:26:45.318Z,82.35
2019-05-25T04:29:18.158Z,82.31
2019-05-25T04:31:50.936Z,82.09
2019-05-25T04:34:24.046Z,82.10
2019-05-25T04:36:56.856Z,81.61
2019-05-25T04:39:29.379Z,81.57
2019-05-25T04:42:02.046Z,81.15
2019-05-25T04:44:37.118Z,80.67
2019-05-25T04:47:24.352Z,80.41
2019-05-25T04:49:44.686Z,80.22
2019-05-25T04:52:19.975Z,79.83
2019-05-25T04:54:54.058Z,79.52
2019-05-25T04:57:26.895Z,78.92
2019-05-25T04:59:59.435Z,78.47
2019-05-25T05:02:32.126Z,78.19
2019-05-25T05:05:05.096Z,77.60
2019-05-25T05:07:37.727Z,76.98
2019-05-25T05:10:11.216Z,76.33
2019-05-25T05:12:43.996Z,76.17
2019-05-25T05:15:16.583Z,75.64
2019-05-25T05:17:49.385Z,75.27
2019-05-25T05:20:22.037Z,74.87
2019-05-25T05:22:54.655Z,73.76
2019-05-25T05:25:30.235Z,74.13
2019-05-25T05:28:03.005Z,73.77
2019-05-25T05:30:37.100Z,73.48
2019-05-25T05:33:09.737Z,72.98
2019-05-25T05:35:43.158Z,72.87
2019-05-25T05:38:16.556Z,72.74
2019-05-25T05:40:49.635Z,72.07
2019-05-25T05:43:23.425Z,71.88
2019-05-25T05:45:58.215Z,71.51
2019-05-25T05:48:33.482Z,71.68
2019-05-25T05:51:10.355Z,70.05
2019-05-25T05:53:44.360Z,70.21
2019-05-25T05:56:18.195Z,70.22
2019-05-25T05:58:51.625Z,70.44
2019-05-25T06:01:24.438Z,68.95
2019-05-25T06:03:57.278Z,68.99
2019-05-25T06:06:30.126Z,68.31
2019-05-25T06:09:04.333Z,68.36
2019-05-25T06:11:37.290Z,66.60
2019-05-25T06:14:10.196Z,67.30
2019-05-25T06:16:42.915Z,67.05
2019-05-25T06:19:15.585Z,66.04
2019-05-25T06:21:48.167Z,65.61
2019-05-25T06:24:20.936Z,64.95
2019-05-25T06:26:54.015Z,63.84
2019-05-25T06:29:26.966Z,64.32
2019-05-25T06:31:59.916Z,63.95
2019-05-25T06:34:32.976Z,61.88
2019-05-25T06:37:06.035Z,61.30
2019-05-25T06:39:40.375Z,60.87
2019-05-25T06:42:13.157Z,62.34
2019-05-25T06:44:45.771Z,61.66
2019-05-25T06:47:18.860Z,61.83
2019-05-25T06:49:51.335Z,58.70
2019-05-25T06:52:24.105Z,60.20
2019-05-25T06:54:57.157Z,61.01
2019-05-25T06:57:42.461Z,60.36
2019-05-25T07:00:05.059Z,59.09
2019-05-25T07:02:38.264Z,57.75
2019-05-25T07:05:11.236Z,56.04
2019-05-25T07:07:43.995Z,56.83
2019-05-25T07:10:18.135Z,56.59
2019-05-25T07:12:51.184Z,57.25
2019-05-25T07:15:24.124Z,56.58
2019-05-25T07:17:56.755Z,55.76
2019-05-25T07:20:29.356Z,55.98
2019-05-25T07:23:02.489Z,54.50
2019-05-25T07:25:35.105Z,53.84
2019-05-25T07:28:08.407Z,55.02
2019-05-25T07:30:41.565Z,55.15
2019-05-25T07:33:14.453Z,52.29
2019-05-25T07:35:47.179Z,53.49
2019-05-25T07:38:20.541Z,50.95
2019-05-25T07:40:56.595Z,52.12
2019-05-25T07:43:29.373Z,52.52
2019-05-25T07:46:03.647Z,53.68
2019-05-25T07:48:36.733Z,53.15
2019-05-25T07:51:09.366Z,48.39
2019-05-25T07:53:42.106Z,49.56
2019-05-25T07:56:16.512Z,52.05
2019-05-25T07:58:49.874Z,49.69
2019-05-25T08:01:22.775Z,48.93
2019-05-25T08:03:55.726Z,50.46
2019-05-25T08:06:28.405Z,49.01
2019-05-25T08:09:01.726Z,47.91
2019-05-25T08:11:35.605Z,49.55
2019-05-25T08:14:08.766Z,47.83
2019-05-25T08:16:42.016Z,50.14
2019-05-25T08:19:15.058Z,44.58
2019-05-25T08:21:47.715Z,47.50
2019-05-25T08:24:20.636Z,48.97
2019-05-25T08:26:53.408Z,49.09
2019-05-25T08:29:26.200Z,46.97
2019-05-25T08:31:59.195Z,46.63
2019-05-25T08:34:32.095Z,47.90
2019-05-25T08:37:04.987Z,48.11
2019-05-25T08:39:38.206Z,47.94
2019-05-25T08:42:11.955Z,44.46
2019-05-25T08:44:46.035Z,45.02
2019-05-25T08:47:19.665Z,44.01
2019-05-25T08:49:52.210Z,46.25
2019-05-25T08:52:25.048Z,46.06
2019-05-25T08:54:57.788Z,46.08
2019-05-25T08:57:30.793Z,45.36
2019-05-25T09:00:03.402Z,43.81
2019-05-25T09:02:36.358Z,42.91
2019-05-25T09:05:09.685Z,45.56
2019-05-25T09:07:42.126Z,44.15
2019-05-25T09:10:14.809Z,44.15
2019-05-25T09:12:47.239Z,43.60
2019-05-25T09:15:20.556Z,43.47
2019-05-25T09:17:55.179Z,43.04
2019-05-25T09:20:28.016Z,43.27
2019-05-25T09:23:00.655Z,44.29
2019-05-25T09:25:33.168Z,43.17
2019-05-25T09:28:05.729Z,43.17
2019-05-25T09:30:38.367Z,42.59
2019-05-25T09:33:11.560Z,42.31
2019-05-25T09:35:44.177Z,41.84
2019-05-25T09:38:17.200Z,40.95
2019-05-25T09:40:49.771Z,42.64
2019-05-25T09:43:22.427Z,42.06
2019-05-25T09:45:55.259Z,42.11
2019-05-25T09:48:27.932Z,41.60
2019-05-25T09:51:00.697Z,41.46
2019-05-25T09:53:33.396Z,41.22
2019-05-25T09:56:05.999Z,41.91
2019-05-25T09:58:38.435Z,42.48
2019-05-25T10:01:10.999Z,41.54
2019-05-25T10:03:44.046Z,42.06
2019-05-25T10:06:16.781Z,40.60
2019-05-25T10:08:52.375Z,40.29
2019-05-25T10:11:25.803Z,37.88
2019-05-25T10:13:58.905Z,40.01
2019-05-25T10:16:31.306Z,40.91
2019-05-25T10:19:04.026Z,41.50
2019-05-25T10:21:36.706Z,41.81
2019-05-25T10:24:09.275Z,40.95
2019-05-25T10:26:41.761Z,41.43
2019-05-25T10:29:14.258Z,40.04
2019-05-25T10:31:46.806Z,41.12
2019-05-25T10:34:19.426Z,40.62
2019-05-25T10:36:51.986Z,40.55
2019-05-25T10:39:24.745Z,40.23
2019-05-25T10:41:58.824Z,39.73
2019-05-25T10:44:32.373Z,39.00
2019-05-25T10:47:04.955Z,37.79
2019-05-25T10:49:37.518Z,40.19
2019-05-25T10:52:10.065Z,40.04
2019-05-25T10:54:42.576Z,39.40
2019-05-25T10:57:15.223Z,38.77
2019-05-25T10:59:52.813Z,38.42
2019-05-25T11:02:22.568Z,40.26
2019-05-25T11:04:55.673Z,38.97
2019-05-25T11:07:28.270Z,38.03
2019-05-25T11:10:00.685Z,37.48
2019-05-25T11:12:33.296Z,37.90
2019-05-25T11:15:05.956Z,38.24
2019-05-25T11:17:38.742Z,37.69
2019-05-25T11:20:13.526Z,37.90
2019-05-25T11:22:46.135Z,37.01
2019-05-25T11:25:19.861Z,37.83
2019-05-25T11:27:53.276Z,37.23
2019-05-25T11:30:26.006Z,36.43
2019-05-25T11:32:58.805Z,37.74
2019-05-25T11:35:31.290Z,37.73
2019-05-25T11:38:03.867Z,36.78
2019-05-25T11:40:36.344Z,37.42
2019-05-25T11:43:08.939Z,36.60
2019-05-25T11:45:45.154Z,37.94
2019-05-25T11:48:15.657Z,37.64
2019-05-25T11:50:48.755Z,38.43
2019-05-25T11:53:21.296Z,34.60
2019-05-25T11:55:53.816Z,35.59
2019-05-25T11:58:26.395Z,36.40
2019-05-25T12:00:59.075Z,37.21
2019-05-25T12:03:31.655Z,36.84
2019-05-25T12:06:04.278Z,36.12
2019-05-25T12:08:37.755Z,38.62
2019-05-25T12:11:10.535Z,38.79
2019-05-25T12:13:43.047Z,39.28
2019-05-25T12:16:15.499Z,38.74
2019-05-25T12:18:48.113Z,37.81
2019-05-25T12:21:21.085Z,36.56
2019-05-25T12:23:53.659Z,36.79
2019-05-25T12:26:26.706Z,36.79
2019-05-25T12:28:59.246Z,37.95
2019-05-25T12:31:31.705Z,37.64
2019-05-25T12:34:04.387Z,36.65
2019-05-25T12:36:37.019Z,35.61
2019-05-25T12:39:09.766Z,35.08
2019-05-25T12:41:42.547Z,36.11
2019-05-25T12:44:15.547Z,35.71
2019-05-25T12:46:50.025Z,36.63
2019-05-25T12:49:22.527Z,35.07
2019-05-25T12:51:55.216Z,35.26
2019-05-25T12:54:27.985Z,38.25
2019-05-25T12:57:02.851Z,38.18
2019-05-25T12:59:35.179Z,36.50
2019-05-25T13:02:07.918Z,36.13
2019-05-25T13:04:40.801Z,32.95
2019-05-25T13:07:13.267Z,37.14
2019-05-25T13:09:45.848Z,38.36
2019-05-25T13:12:18.635Z,39.86
2019-05-25T13:14:51.125Z,40.81
2019-05-25T13:17:23.994Z,39.54
2019-05-25T13:19:56.710Z,36.67
2019-05-25T13:22:30.686Z,36.95
2019-05-25T13:25:03.316Z,36.91
2019-05-25T13:27:36.016Z,34.75
2019-05-25T13:30:09.065Z,34.21
2019-05-25T13:32:41.996Z,36.21
2019-05-25T13:35:15.105Z,36.96
2019-05-25T13:37:49.265Z,37.58
2019-05-25T13:40:21.826Z,36.89
2019-05-25T13:42:54.393Z,36.14
2019-05-25T13:45:26.925Z,36.01
2019-05-25T13:47:59.660Z,36.42
2019-05-25T13:50:32.115Z,37.08
2019-05-25T13:53:04.805Z,36.34
2019-05-25T13:55:37.337Z,36.87
2019-05-25T13:58:10.175Z,35.87
2019-05-25T14:00:42.937Z,36.38
2019-05-25T14:03:15.615Z,36.69
2019-05-25T14:05:48.355Z,35.69
2019-05-25T14:08:20.785Z,36.19
2019-05-25T14:10:53.245Z,36.84
2019-05-25T14:13:26.105Z,37.60
2019-05-25T14:16:07.269Z,38.45
2019-05-25T14:18:33.086Z,39.60
2019-05-25T14:21:05.773Z,40.22
2019-05-25T14:23:38.527Z,41.25
2019-05-25T14:26:10.995Z,40.73
2019-05-25T14:28:43.457Z,39.18
2019-05-25T14:31:16.146Z,39.23
2019-05-25T14:33:48.785Z,38.36
2019-05-25T14:36:21.975Z,41.13
2019-05-25T14:38:55.606Z,40.82
2019-05-25T14:41:29.875Z,42.33
2019-05-25T14:44:02.826Z,43.30
2019-05-25T14:46:35.443Z,43.07
2019-05-25T14:49:08.204Z,43.88
2019-05-25T14:51:42.086Z,44.08
2019-05-25T14:54:14.585Z,43.90
2019-05-25T14:56:47.112Z,45.35
2019-05-25T14:59:19.445Z,46.31
2019-05-25T15:02:01.982Z,46.74
2019-05-25T15:04:26.294Z,47.52
2019-05-25T15:06:59.704Z,48.22
2019-05-25T15:09:32.349Z,47.72
2019-05-25T15:12:04.866Z,48.55
2019-05-25T15:14:37.717Z,48.50
2019-05-25T15:17:10.178Z,48.71
2019-05-25T15:19:42.727Z,49.08
2019-05-25T15:22:15.452Z,49.61
2019-05-25T15:24:48.377Z,49.52
2019-05-25T15:27:21.865Z,49.47
2019-05-25T15:29:54.295Z,49.38
2019-05-25T15:32:27.835Z,49.64
2019-05-25T15:35:00.968Z,48.28
2019-05-25T15:37:33.837Z,46.87
2019-05-25T15:40:07.107Z,46.21
2019-05-25T15:42:39.648Z,45.26
2019-05-25T15:45:14.326Z,44.69
2019-05-25T15:47:46.706Z,44.72
2019-05-25T15:50:19.651Z,45.35
2019-05-25T15:52:52.202Z,46.48
2019-05-25T15:55:24.645Z,46.84
2019-05-25T15:57:57.225Z,47.09
2019-05-25T16:00:49.265Z,46.92
2019-05-25T16:03:22.377Z,46.92
2019-05-25T16:05:54.955Z,46.42
2019-05-25T16:08:27.765Z,46.42
2019-05-25T16:11:00.508Z,46.83
2019-05-25T16:13:33.089Z,46.77
2019-05-25T16:16:06.294Z,47.00
2019-05-25T16:18:39.716Z,47.91
2019-05-25T16:21:12.307Z,47.62
2019-05-25T16:23:44.945Z,48.16
2019-05-25T16:26:17.555Z,48.00
2019-05-25T16:28:51.156Z,48.60
2019-05-25T16:31:23.845Z,48.47
2019-05-25T16:33:57.033Z,48.41
2019-05-25T16:36:29.596Z,48.64
2019-05-25T16:39:03.816Z,49.21
2019-05-25T16:41:38.836Z,48.51
2019-05-25T16:44:12.124Z,48.74
2019-05-25T16:46:44.736Z,49.04
2019-05-25T16:49:17.275Z,49.75
2019-05-25T16:51:49.995Z,49.75
2019-05-25T16:54:22.634Z,49.81
2019-05-25T16:56:55.317Z,50.39
2019-05-25T16:59:27.916Z,50.23
2019-05-25T17:02:00.518Z,50.23
2019-05-25T17:04:33.026Z,50.04
2019-05-25T17:07:05.595Z,50.25
2019-05-25T17:09:38.360Z,49.93
2019-05-25T17:12:11.815Z,50.90
2019-05-25T17:14:44.531Z,50.90
2019-05-25T17:17:17.133Z,51.61
2019-05-25T17:19:49.925Z,51.61
2019-05-25T17:22:22.455Z,51.72
2019-05-25T17:24:59.443Z,52.09
2019-05-25T17:27:30.928Z,52.54
2019-05-25T17:30:05.885Z,52.66
2019-05-25T17:32:40.285Z,53.30
2019-05-25T17:35:12.973Z,54.37
2019-05-25T17:37:45.825Z,54.96
2019-05-25T17:40:18.297Z,56.22
2019-05-25T17:42:51.235Z,56.22
2019-05-25T17:45:25.403Z,56.75
2019-05-25T17:48:01.527Z,57.23
2019-05-25T17:50:34.493Z,57.74
2019-05-25T17:53:07.226Z,57.35
2019-05-25T17:55:39.975Z,57.32
2019-05-25T17:58:13.355Z,56.99
2019-05-25T18:00:50.013Z,56.61
2019-05-25T18:03:23.046Z,56.71
2019-05-25T18:05:55.777Z,57.19
2019-05-25T18:08:31.440Z,57.53
2019-05-25T18:11:04.219Z,58.16
2019-05-25T18:13:38.175Z,57.99
2019-05-25T18:16:18.926Z,57.62
2019-05-25T18:18:51.984Z,57.70
2019-05-25T18:21:27.035Z,56.64
2019-05-25T18:24:00.756Z,57.62
2019-05-25T18:26:35.327Z,57.60
2019-05-25T18:29:08.254Z,57.55
2019-05-25T18:31:40.808Z,57.65
2019-05-25T18:34:21.620Z,58.01
2019-05-25T18:36:47.566Z,58.02
2019-05-25T18:39:20.136Z,58.02
2019-05-25T18:41:52.618Z,57.46
2019-05-25T18:44:27.406Z,57.13
2019-05-25T18:47:00.555Z,56.74
2019-05-25T18:49:41.486Z,56.61
2019-05-25T18:52:14.646Z,56.58
2019-05-25T18:54:47.303Z,56.73
2019-05-25T18:57:22.825Z,56.78
2019-05-25T18:59:56.066Z,57.16
2019-05-25T19:02:31.268Z,57.33
2019-05-25T19:05:05.598Z,57.88
2019-05-25T19:07:38.376Z,57.88
2019-05-25T19:10:11.815Z,57.92
2019-05-25T19:12:44.945Z,58.34
2019-05-25T19:15:18.044Z,58.75
2019-05-25T19:17:50.866Z,58.85
2019-05-25T19:20:24.676Z,58.82
2019-05-25T19:23:00.615Z,59.11
2019-05-25T19:25:34.485Z,59.30
2019-05-25T19:28:07.442Z,59.96
2019-05-25T19:30:41.557Z,60.79
2019-05-25T19:33:17.825Z,61.38
2019-05-25T19:35:54.404Z,61.29
2019-05-25T19:38:35.045Z,61.17
2019-05-25T19:41:07.706Z,61.19
2019-05-25T19:43:40.266Z,61.30
2019-05-25T19:46:13.045Z,61.63
2019-05-25T19:48:45.815Z,62.13
2019-05-25T19:51:18.836Z,62.33
2019-05-25T19:53:51.485Z,62.73
2019-05-25T19:56:24.046Z,62.88
2019-05-25T19:58:56.795Z,63.27
2019-05-25T20:01:29.205Z,63.64
2019-05-25T20:04:01.857Z,63.71
2019-05-25T20:06:34.320Z,64.00
2019-05-25T20:09:08.688Z,64.41
2019-05-25T20:11:43.546Z,64.72
2019-05-25T20:14:21.575Z,64.84
2019-05-25T20:16:56.627Z,65.19
2019-05-25T20:19:34.015Z,65.74
2019-05-25T20:22:12.394Z,65.87
2019-05-25T20:24:47.299Z,66.25
2019-05-25T20:27:21.271Z,66.29
2019-05-25T20:29:54.103Z,66.52
2019-05-25T20:34:48.876Z,67.06
2019-05-25T20:37:23.137Z,67.36
2019-05-25T20:39:55.915Z,67.50
2019-05-25T20:42:28.645Z,67.46
2019-05-25T20:45:01.046Z,67.76
2019-05-25T20:47:34.325Z,67.76
2019-05-25T20:50:07.259Z,68.27
2019-05-25T20:52:40.239Z,68.47
2019-05-25T20:55:14.128Z,68.86
2019-05-25T20:57:46.983Z,69.10
2019-05-25T21:00:23.829Z,69.79
2019-05-25T21:03:05.251Z,70.13
2019-05-25T21:05:28.375Z,70.41
2019-05-25T21:08:00.914Z,70.84
2019-05-25T21:10:33.555Z,71.34
2019-05-25T21:13:06.055Z,71.36
2019-05-25T21:15:38.606Z,71.63
2019-05-25T21:18:11.587Z,71.88
2019-05-25T21:20:44.157Z,71.95
2019-05-25T21:23:16.770Z,72.16
2019-05-25T21:25:49.445Z,72.48
2019-05-25T21:28:22.425Z,72.54
2019-05-25T21:30:54.935Z,72.60
2019-05-25T21:33:27.497Z,72.67
2019-05-25T21:36:08.480Z,72.60
2019-05-25T21:38:34.375Z,72.53
2019-05-25T21:41:06.895Z,72.51
2019-05-25T21:43:39.365Z,72.63
2019-05-25T21:46:11.836Z,73.13
2019-05-25T21:48:44.347Z,73.03
2019-05-25T21:51:16.955Z,73.51
2019-05-25T21:53:49.505Z,74.01
2019-05-25T21:56:22.165Z,74.30
2019-05-25T21:58:54.816Z,74.47
2019-05-25T22:01:27.706Z,74.57
2019-05-25T22:04:02.056Z,75.02
2019-05-25T22:06:34.816Z,75.25
2019-05-25T22:09:08.896Z,75.55
2019-05-25T22:11:41.530Z,75.73
2019-05-25T22:14:14.245Z,75.95
2019-05-25T22:16:46.649Z,75.94
2019-05-25T22:19:19.237Z,76.07
2019-05-25T22:21:51.768Z,76.12
2019-05-25T22:24:25.105Z,76.20
2019-05-25T22:26:57.565Z,76.65
2019-05-25T22:29:30.457Z,76.81
2019-05-25T22:32:03.107Z,76.94
2019-05-25T22:34:36.216Z,77.27
2019-05-25T22:37:10.115Z,77.33
2019-05-25T22:39:42.656Z,77.08
2019-05-25T22:42:15.488Z,76.91
2019-05-25T22:44:48.504Z,77.07
2019-05-25T22:47:21.626Z,77.27
2019-05-25T22:49:54.525Z,77.19
2019-05-25T22:52:27.422Z,77.27
2019-05-25T22:55:00.272Z,77.39
2019-05-25T22:57:33.081Z,77.71
2019-05-25T23:00:07.038Z,78.08
2019-05-25T23:02:41.175Z,77.97
2019-05-25T23:05:14.405Z,78.07
2019-05-25T23:07:47.185Z,78.21
2019-05-25T23:10:20.119Z,78.21
2019-05-25T23:12:52.744Z,78.38
2019-05-25T23:15:25.581Z,78.34
2019-05-25T23:17:59.455Z,78.53
2019-05-25T23:20:32.406Z,78.70
2019-05-25T23:23:05.073Z,78.36
2019-05-25T23:25:37.865Z,78.89
2019-05-25T23:28:10.615Z,78.92
2019-05-25T23:30:43.555Z,79.03
2019-05-25T23:33:17.196Z,78.86
2019-05-25T23:35:50.216Z,79.04
2019-05-25T23:38:22.655Z,79.15
2019-05-25T23:40:55.470Z,79.05
2019-05-25T23:43:28.225Z,78.30
2019-05-25T23:46:01.825Z,78.37
2019-05-25T23:48:34.336Z,78.26
2019-05-25T23:51:07.135Z,78.25
2019-05-25T23:53:39.768Z,78.58
2019-05-25T23:56:12.505Z,79.15
2019-05-25T23:58:45.146Z,79.38
